sensor_id;sensor_type;location;lat;lon;timestamp;P1;durP1;ratioP1;P2;durP2;ratioP2
11222;SDS011;5668;52.012;8.724;2023-03-04T00:00:03;9.80;;;3.40;;
11222;SDS011;5668;52.012;8.724;2023-03-04T00:02:31;14.80;;;3.80;;
11222;SDS011;5668;52.012;8.724;2023-03-04T00:04:58;11.27;;;3.30;;
11222;SDS011;5668;52.012;8.724;2023-03-04T00:07:27;12.43;;;3.47;;
11222;SDS011;5668;52.012;8.724;2023-03-04T00:09:54;7.77;;;3.23;;
11222;SDS011;5668;52.012;8.724;2023-03-04T00:12:23;12.03;;;3.70;;
11222;SDS011;5668;52.012;8.724;2023-03-04T00:14:51;8.43;;;3.20;;
11222;SDS011;5668;52.012;8.724;2023-03-04T00:17:18;9.37;;;3.17;;
11222;SDS011;5668;52.012;8.724;2023-03-04T00:19:45;10.17;;;3.70;;
11222;SDS011;5668;52.012;8.724;2023-03-04T00:22:13;11.67;;;3.10;;
11222;SDS011;5668;52.012;8.724;2023-03-04T00:24:40;13.30;;;4.00;;
11222;SDS011;5668;52.012;8.724;2023-03-04T00:27:07;12.70;;;3.37;;
11222;SDS011;5668;52.012;8.724;2023-03-04T00:29:36;10.70;;;3.10;;
11222;SDS011;5668;52.012;8.724;2023-03-04T00:32:03;13.67;;;3.97;;
11222;SDS011;5668;52.012;8.724;2023-03-04T00:34:30;10.17;;;3.23;;
11222;SDS011;5668;52.012;8.724;2023-03-04T00:36:58;10.33;;;3.20;;
11222;SDS011;5668;52.012;8.724;2023-03-04T00:39:27;12.97;;;3.70;;
11222;SDS011;5668;52.012;8.724;2023-03-04T00:41:55;13.37;;;4.03;;
11222;SDS011;5668;52.012;8.724;2023-03-04T00:44:22;12.27;;;3.57;;
11222;SDS011;5668;52.012;8.724;2023-03-04T00:46:50;10.80;;;3.40;;
11222;SDS011;5668;52.012;8.724;2023-03-04T00:49:18;9.33;;;3.30;;
11222;SDS011;5668;52.012;8.724;2023-03-04T00:51:45;14.53;;;4.00;;
11222;SDS011;5668;52.012;8.724;2023-03-04T00:54:12;10.40;;;3.30;;
11222;SDS011;5668;52.012;8.724;2023-03-04T00:56:39;16.13;;;3.77;;
11222;SDS011;5668;52.012;8.724;2023-03-04T00:59:07;13.30;;;4.30;;
11222;SDS011;5668;52.012;8.724;2023-03-04T01:01:34;10.50;;;3.23;;
11222;SDS011;5668;52.012;8.724;2023-03-04T01:04:02;15.10;;;3.83;;
11222;SDS011;5668;52.012;8.724;2023-03-04T01:06:30;17.53;;;3.60;;
11222;SDS011;5668;52.012;8.724;2023-03-04T01:08:57;13.93;;;3.77;;
11222;SDS011;5668;52.012;8.724;2023-03-04T01:11:24;13.40;;;3.33;;
11222;SDS011;5668;52.012;8.724;2023-03-04T01:13:51;13.73;;;3.70;;
11222;SDS011;5668;52.012;8.724;2023-03-04T01:16:18;12.23;;;3.90;;
11222;SDS011;5668;52.012;8.724;2023-03-04T01:18:46;12.97;;;3.27;;
11222;SDS011;5668;52.012;8.724;2023-03-04T01:21:14;16.77;;;3.27;;
11222;SDS011;5668;52.012;8.724;2023-03-04T01:23:41;13.07;;;3.03;;
11222;SDS011;5668;52.012;8.724;2023-03-04T01:26:09;11.50;;;3.77;;
11222;SDS011;5668;52.012;8.724;2023-03-04T01:28:36;14.63;;;3.27;;
11222;SDS011;5668;52.012;8.724;2023-03-04T01:31:03;10.30;;;2.87;;
11222;SDS011;5668;52.012;8.724;2023-03-04T01:33:31;13.53;;;3.67;;
11222;SDS011;5668;52.012;8.724;2023-03-04T01:35:58;14.67;;;3.43;;
11222;SDS011;5668;52.012;8.724;2023-03-04T01:38:26;13.27;;;3.70;;
11222;SDS011;5668;52.012;8.724;2023-03-04T01:40:53;8.40;;;2.93;;
11222;SDS011;5668;52.012;8.724;2023-03-04T01:43:22;12.13;;;3.20;;
11222;SDS011;5668;52.012;8.724;2023-03-04T01:45:52;15.00;;;3.37;;
11222;SDS011;5668;52.012;8.724;2023-03-04T01:48:22;10.80;;;3.23;;
11222;SDS011;5668;52.012;8.724;2023-03-04T01:50:51;15.33;;;3.20;;
11222;SDS011;5668;52.012;8.724;2023-03-04T01:53:20;13.43;;;3.60;;
11222;SDS011;5668;52.012;8.724;2023-03-04T01:55:52;11.90;;;3.27;;
11222;SDS011;5668;52.012;8.724;2023-03-04T01:58:22;15.70;;;3.03;;
11222;SDS011;5668;52.012;8.724;2023-03-04T02:00:51;11.87;;;3.13;;
11222;SDS011;5668;52.012;8.724;2023-03-04T02:03:18;10.60;;;2.93;;
11222;SDS011;5668;52.012;8.724;2023-03-04T02:05:47;11.60;;;3.00;;
11222;SDS011;5668;52.012;8.724;2023-03-04T02:08:17;14.30;;;3.33;;
11222;SDS011;5668;52.012;8.724;2023-03-04T02:10:45;12.87;;;3.73;;
11222;SDS011;5668;52.012;8.724;2023-03-04T02:13:15;12.87;;;3.33;;
11222;SDS011;5668;52.012;8.724;2023-03-04T02:15:43;11.63;;;3.67;;
11222;SDS011;5668;52.012;8.724;2023-03-04T02:18:13;13.10;;;3.63;;
11222;SDS011;5668;52.012;8.724;2023-03-04T02:20:44;10.53;;;3.10;;
11222;SDS011;5668;52.012;8.724;2023-03-04T02:23:20;10.90;;;3.10;;
11222;SDS011;5668;52.012;8.724;2023-03-04T02:25:52;12.33;;;2.77;;
11222;SDS011;5668;52.012;8.724;2023-03-04T02:28:43;13.00;;;3.60;;
11222;SDS011;5668;52.012;8.724;2023-03-04T02:31:19;10.70;;;2.50;;
11222;SDS011;5668;52.012;8.724;2023-03-04T02:33:50;9.10;;;2.50;;
11222;SDS011;5668;52.012;8.724;2023-03-04T02:36:19;11.47;;;2.60;;
11222;SDS011;5668;52.012;8.724;2023-03-04T02:38:47;8.60;;;2.77;;
11222;SDS011;5668;52.012;8.724;2023-03-04T02:41:15;12.73;;;2.60;;
11222;SDS011;5668;52.012;8.724;2023-03-04T02:43:48;13.20;;;3.17;;
11222;SDS011;5668;52.012;8.724;2023-03-04T02:46:19;15.33;;;3.00;;
11222;SDS011;5668;52.012;8.724;2023-03-04T02:48:47;10.37;;;2.60;;
11222;SDS011;5668;52.012;8.724;2023-03-04T02:51:14;9.50;;;2.77;;
11222;SDS011;5668;52.012;8.724;2023-03-04T02:53:42;10.27;;;3.27;;
11222;SDS011;5668;52.012;8.724;2023-03-04T02:56:09;16.00;;;3.10;;
11222;SDS011;5668;52.012;8.724;2023-03-04T02:58:36;7.43;;;2.87;;
11222;SDS011;5668;52.012;8.724;2023-03-04T03:01:07;8.07;;;2.90;;
11222;SDS011;5668;52.012;8.724;2023-03-04T03:03:34;11.23;;;3.27;;
11222;SDS011;5668;52.012;8.724;2023-03-04T03:06:01;8.37;;;2.63;;
11222;SDS011;5668;52.012;8.724;2023-03-04T03:08:29;11.70;;;2.67;;
11222;SDS011;5668;52.012;8.724;2023-03-04T03:10:56;13.20;;;2.90;;
11222;SDS011;5668;52.012;8.724;2023-03-04T03:13:23;7.87;;;2.40;;
11222;SDS011;5668;52.012;8.724;2023-03-04T03:15:50;9.40;;;2.67;;
11222;SDS011;5668;52.012;8.724;2023-03-04T03:18:19;7.73;;;3.00;;
11222;SDS011;5668;52.012;8.724;2023-03-04T03:20:46;8.03;;;2.50;;
11222;SDS011;5668;52.012;8.724;2023-03-04T03:23:14;10.33;;;2.60;;
11222;SDS011;5668;52.012;8.724;2023-03-04T03:25:42;14.37;;;2.60;;
11222;SDS011;5668;52.012;8.724;2023-03-04T03:28:09;8.17;;;1.90;;
11222;SDS011;5668;52.012;8.724;2023-03-04T03:30:36;11.30;;;2.73;;
11222;SDS011;5668;52.012;8.724;2023-03-04T03:33:03;9.87;;;3.37;;
11222;SDS011;5668;52.012;8.724;2023-03-04T03:35:32;10.37;;;2.93;;
11222;SDS011;5668;52.012;8.724;2023-03-04T03:37:59;7.23;;;2.73;;
11222;SDS011;5668;52.012;8.724;2023-03-04T03:40:26;10.07;;;2.63;;
11222;SDS011;5668;52.012;8.724;2023-03-04T03:42:54;14.57;;;2.73;;
11222;SDS011;5668;52.012;8.724;2023-03-04T03:45:21;10.10;;;2.90;;
11222;SDS011;5668;52.012;8.724;2023-03-04T03:47:49;13.43;;;3.07;;
11222;SDS011;5668;52.012;8.724;2023-03-04T03:50:16;13.63;;;3.80;;
11222;SDS011;5668;52.012;8.724;2023-03-04T03:52:49;6.07;;;2.40;;
11222;SDS011;5668;52.012;8.724;2023-03-04T03:55:16;9.90;;;2.87;;
11222;SDS011;5668;52.012;8.724;2023-03-04T03:57:43;11.50;;;2.80;;
11222;SDS011;5668;52.012;8.724;2023-03-04T04:00:11;8.73;;;2.40;;
11222;SDS011;5668;52.012;8.724;2023-03-04T04:02:39;9.53;;;2.47;;
11222;SDS011;5668;52.012;8.724;2023-03-04T04:05:07;8.73;;;2.53;;
11222;SDS011;5668;52.012;8.724;2023-03-04T04:07:35;9.83;;;2.93;;
11222;SDS011;5668;52.012;8.724;2023-03-04T04:10:06;11.93;;;2.43;;
11222;SDS011;5668;52.012;8.724;2023-03-04T04:12:37;9.13;;;2.50;;
11222;SDS011;5668;52.012;8.724;2023-03-04T04:15:05;9.27;;;2.50;;
11222;SDS011;5668;52.012;8.724;2023-03-04T04:17:35;10.60;;;2.70;;
11222;SDS011;5668;52.012;8.724;2023-03-04T04:20:02;6.60;;;2.00;;
11222;SDS011;5668;52.012;8.724;2023-03-04T04:22:34;8.50;;;2.30;;
11222;SDS011;5668;52.012;8.724;2023-03-04T04:25:01;6.73;;;2.17;;
11222;SDS011;5668;52.012;8.724;2023-03-04T04:27:30;5.23;;;1.93;;
11222;SDS011;5668;52.012;8.724;2023-03-04T04:29:57;11.17;;;2.37;;
11222;SDS011;5668;52.012;8.724;2023-03-04T04:32:24;5.50;;;2.53;;
11222;SDS011;5668;52.012;8.724;2023-03-04T04:34:51;10.77;;;2.30;;
11222;SDS011;5668;52.012;8.724;2023-03-04T04:37:19;6.73;;;2.13;;
11222;SDS011;5668;52.012;8.724;2023-03-04T04:39:46;10.20;;;2.43;;
11222;SDS011;5668;52.012;8.724;2023-03-04T04:42:13;10.73;;;2.80;;
11222;SDS011;5668;52.012;8.724;2023-03-04T04:44:42;8.97;;;2.23;;
11222;SDS011;5668;52.012;8.724;2023-03-04T04:47:09;6.23;;;2.50;;
11222;SDS011;5668;52.012;8.724;2023-03-04T04:49:36;6.07;;;2.00;;
11222;SDS011;5668;52.012;8.724;2023-03-04T04:52:04;4.30;;;1.80;;
11222;SDS011;5668;52.012;8.724;2023-03-04T04:54:31;7.50;;;2.47;;
11222;SDS011;5668;52.012;8.724;2023-03-04T04:56:58;6.23;;;1.87;;
11222;SDS011;5668;52.012;8.724;2023-03-04T04:59:26;7.97;;;2.23;;
11222;SDS011;5668;52.012;8.724;2023-03-04T05:01:54;4.70;;;2.13;;
11222;SDS011;5668;52.012;8.724;2023-03-04T05:04:22;8.43;;;2.40;;
11222;SDS011;5668;52.012;8.724;2023-03-04T05:06:49;7.80;;;2.50;;
11222;SDS011;5668;52.012;8.724;2023-03-04T05:09:16;5.90;;;1.97;;
11222;SDS011;5668;52.012;8.724;2023-03-04T05:11:44;9.37;;;2.50;;
11222;SDS011;5668;52.012;8.724;2023-03-04T05:14:12;9.73;;;2.30;;
11222;SDS011;5668;52.012;8.724;2023-03-04T05:16:39;7.53;;;2.50;;
11222;SDS011;5668;52.012;8.724;2023-03-04T05:19:07;7.10;;;2.10;;
11222;SDS011;5668;52.012;8.724;2023-03-04T05:21:35;7.13;;;2.63;;
11222;SDS011;5668;52.012;8.724;2023-03-04T05:24:02;10.87;;;2.20;;
11222;SDS011;5668;52.012;8.724;2023-03-04T05:26:30;9.20;;;2.07;;
11222;SDS011;5668;52.012;8.724;2023-03-04T05:28:57;6.10;;;2.40;;
11222;SDS011;5668;52.012;8.724;2023-03-04T05:31:24;12.43;;;2.93;;
11222;SDS011;5668;52.012;8.724;2023-03-04T05:33:51;10.40;;;2.87;;
11222;SDS011;5668;52.012;8.724;2023-03-04T05:36:20;9.23;;;2.10;;
11222;SDS011;5668;52.012;8.724;2023-03-04T05:38:47;8.67;;;2.40;;
11222;SDS011;5668;52.012;8.724;2023-03-04T05:41:14;7.77;;;2.33;;
11222;SDS011;5668;52.012;8.724;2023-03-04T05:43:44;8.70;;;2.93;;
11222;SDS011;5668;52.012;8.724;2023-03-04T05:46:12;7.37;;;2.33;;
11222;SDS011;5668;52.012;8.724;2023-03-04T05:48:40;8.37;;;2.63;;
11222;SDS011;5668;52.012;8.724;2023-03-04T05:51:07;6.87;;;2.30;;
11222;SDS011;5668;52.012;8.724;2023-03-04T05:53:36;9.10;;;2.63;;
11222;SDS011;5668;52.012;8.724;2023-03-04T05:56:07;14.90;;;2.87;;
11222;SDS011;5668;52.012;8.724;2023-03-04T05:58:35;7.23;;;2.57;;
11222;SDS011;5668;52.012;8.724;2023-03-04T06:01:03;8.17;;;2.90;;
11222;SDS011;5668;52.012;8.724;2023-03-04T06:03:31;7.37;;;2.33;;
11222;SDS011;5668;52.012;8.724;2023-03-04T06:05:58;9.63;;;2.73;;
11222;SDS011;5668;52.012;8.724;2023-03-04T06:08:25;6.40;;;2.40;;
11222;SDS011;5668;52.012;8.724;2023-03-04T06:10:55;9.13;;;2.23;;
11222;SDS011;5668;52.012;8.724;2023-03-04T06:13:23;6.60;;;2.47;;
11222;SDS011;5668;52.012;8.724;2023-03-04T06:15:52;5.70;;;2.20;;
11222;SDS011;5668;52.012;8.724;2023-03-04T06:18:20;6.27;;;2.23;;
11222;SDS011;5668;52.012;8.724;2023-03-04T06:20:48;8.20;;;2.00;;
11222;SDS011;5668;52.012;8.724;2023-03-04T06:23:16;5.40;;;2.10;;
11222;SDS011;5668;52.012;8.724;2023-03-04T06:25:43;6.33;;;2.00;;
11222;SDS011;5668;52.012;8.724;2023-03-04T06:28:11;5.83;;;1.80;;
11222;SDS011;5668;52.012;8.724;2023-03-04T06:30:39;5.57;;;1.90;;
11222;SDS011;5668;52.012;8.724;2023-03-04T06:33:06;5.03;;;2.10;;
11222;SDS011;5668;52.012;8.724;2023-03-04T06:35:33;5.67;;;2.00;;
11222;SDS011;5668;52.012;8.724;2023-03-04T06:38:00;6.57;;;2.43;;
11222;SDS011;5668;52.012;8.724;2023-03-04T06:40:27;9.47;;;2.43;;
11222;SDS011;5668;52.012;8.724;2023-03-04T06:42:54;8.30;;;2.63;;
11222;SDS011;5668;52.012;8.724;2023-03-04T06:45:23;4.27;;;1.90;;
11222;SDS011;5668;52.012;8.724;2023-03-04T06:47:50;5.93;;;2.27;;
11222;SDS011;5668;52.012;8.724;2023-03-04T06:50:18;4.93;;;2.27;;
11222;SDS011;5668;52.012;8.724;2023-03-04T06:52:46;9.43;;;2.60;;
11222;SDS011;5668;52.012;8.724;2023-03-04T06:55:14;8.50;;;2.33;;
11222;SDS011;5668;52.012;8.724;2023-03-04T06:57:41;9.63;;;2.53;;
11222;SDS011;5668;52.012;8.724;2023-03-04T07:00:08;5.27;;;2.30;;
11222;SDS011;5668;52.012;8.724;2023-03-04T07:02:38;5.27;;;2.27;;
11222;SDS011;5668;52.012;8.724;2023-03-04T07:05:06;7.27;;;2.27;;
11222;SDS011;5668;52.012;8.724;2023-03-04T07:07:34;5.60;;;2.40;;
11222;SDS011;5668;52.012;8.724;2023-03-04T07:10:01;6.30;;;1.90;;
11222;SDS011;5668;52.012;8.724;2023-03-04T07:12:32;5.80;;;2.37;;
11222;SDS011;5668;52.012;8.724;2023-03-04T07:14:59;6.90;;;2.17;;
11222;SDS011;5668;52.012;8.724;2023-03-04T07:17:26;4.73;;;2.20;;
11222;SDS011;5668;52.012;8.724;2023-03-04T07:19:55;6.57;;;2.00;;
11222;SDS011;5668;52.012;8.724;2023-03-04T07:22:22;6.90;;;2.43;;
11222;SDS011;5668;52.012;8.724;2023-03-04T07:24:49;5.97;;;2.37;;
11222;SDS011;5668;52.012;8.724;2023-03-04T07:27:16;6.07;;;1.90;;
11222;SDS011;5668;52.012;8.724;2023-03-04T07:29:44;5.97;;;2.20;;
11222;SDS011;5668;52.012;8.724;2023-03-04T07:32:11;7.30;;;2.40;;
11222;SDS011;5668;52.012;8.724;2023-03-04T07:34:38;4.60;;;2.00;;
11222;SDS011;5668;52.012;8.724;2023-03-04T07:37:06;10.30;;;2.27;;
11222;SDS011;5668;52.012;8.724;2023-03-04T07:39:34;6.97;;;2.27;;
11222;SDS011;5668;52.012;8.724;2023-03-04T07:42:01;5.27;;;2.23;;
11222;SDS011;5668;52.012;8.724;2023-03-04T07:44:28;4.27;;;2.43;;
11222;SDS011;5668;52.012;8.724;2023-03-04T07:46:55;8.07;;;2.37;;
11222;SDS011;5668;52.012;8.724;2023-03-04T07:49:23;8.83;;;2.63;;
11222;SDS011;5668;52.012;8.724;2023-03-04T07:51:50;5.67;;;2.37;;
11222;SDS011;5668;52.012;8.724;2023-03-04T07:54:18;8.13;;;2.70;;
11222;SDS011;5668;52.012;8.724;2023-03-04T07:56:46;7.47;;;2.63;;
11222;SDS011;5668;52.012;8.724;2023-03-04T07:59:13;6.60;;;2.70;;
11222;SDS011;5668;52.012;8.724;2023-03-04T08:01:40;5.30;;;2.27;;
11222;SDS011;5668;52.012;8.724;2023-03-04T08:04:07;6.37;;;2.50;;
11222;SDS011;5668;52.012;8.724;2023-03-04T08:06:34;4.70;;;2.70;;
11222;SDS011;5668;52.012;8.724;2023-03-04T08:09:03;6.60;;;2.50;;
11222;SDS011;5668;52.012;8.724;2023-03-04T08:11:33;6.87;;;2.20;;
11222;SDS011;5668;52.012;8.724;2023-03-04T08:14:02;7.73;;;2.67;;
11222;SDS011;5668;52.012;8.724;2023-03-04T08:16:29;6.43;;;3.07;;
11222;SDS011;5668;52.012;8.724;2023-03-04T08:18:57;10.23;;;2.83;;
11222;SDS011;5668;52.012;8.724;2023-03-04T08:21:26;7.73;;;3.10;;
11222;SDS011;5668;52.012;8.724;2023-03-04T08:23:54;4.67;;;2.90;;
11222;SDS011;5668;52.012;8.724;2023-03-04T08:26:24;7.43;;;2.90;;
11222;SDS011;5668;52.012;8.724;2023-03-04T08:28:55;4.40;;;2.43;;
11222;SDS011;5668;52.012;8.724;2023-03-04T08:31:23;6.87;;;3.20;;
11222;SDS011;5668;52.012;8.724;2023-03-04T08:33:50;4.73;;;2.63;;
11222;SDS011;5668;52.012;8.724;2023-03-04T08:36:18;8.40;;;2.93;;
11222;SDS011;5668;52.012;8.724;2023-03-04T08:38:45;9.40;;;3.03;;
11222;SDS011;5668;52.012;8.724;2023-03-04T08:41:13;7.33;;;3.17;;
11222;SDS011;5668;52.012;8.724;2023-03-04T08:43:41;8.20;;;3.53;;
11222;SDS011;5668;52.012;8.724;2023-03-04T08:46:09;5.73;;;3.20;;
11222;SDS011;5668;52.012;8.724;2023-03-04T08:48:37;7.07;;;3.10;;
11222;SDS011;5668;52.012;8.724;2023-03-04T08:51:08;6.30;;;2.93;;
11222;SDS011;5668;52.012;8.724;2023-03-04T08:53:35;9.17;;;3.00;;
11222;SDS011;5668;52.012;8.724;2023-03-04T08:56:03;6.03;;;2.90;;
11222;SDS011;5668;52.012;8.724;2023-03-04T08:58:31;7.13;;;3.17;;
11222;SDS011;5668;52.012;8.724;2023-03-04T09:00:59;6.50;;;2.73;;
11222;SDS011;5668;52.012;8.724;2023-03-04T09:03:28;9.30;;;3.10;;
11222;SDS011;5668;52.012;8.724;2023-03-04T09:05:56;6.57;;;2.80;;
11222;SDS011;5668;52.012;8.724;2023-03-04T09:08:23;4.67;;;2.77;;
11222;SDS011;5668;52.012;8.724;2023-03-04T09:10:51;9.33;;;3.00;;
11222;SDS011;5668;52.012;8.724;2023-03-04T09:13:19;6.27;;;2.80;;
11222;SDS011;5668;52.012;8.724;2023-03-04T09:15:48;4.30;;;2.60;;
11222;SDS011;5668;52.012;8.724;2023-03-04T09:18:16;5.33;;;2.90;;
11222;SDS011;5668;52.012;8.724;2023-03-04T09:20:47;7.33;;;2.63;;
11222;SDS011;5668;52.012;8.724;2023-03-04T09:23:14;5.10;;;2.80;;
11222;SDS011;5668;52.012;8.724;2023-03-04T09:25:42;4.53;;;2.20;;
11222;SDS011;5668;52.012;8.724;2023-03-04T09:28:11;6.23;;;2.83;;
11222;SDS011;5668;52.012;8.724;2023-03-04T09:30:39;10.73;;;3.63;;
11222;SDS011;5668;52.012;8.724;2023-03-04T09:33:07;6.97;;;3.20;;
11222;SDS011;5668;52.012;8.724;2023-03-04T09:35:34;6.17;;;2.87;;
11222;SDS011;5668;52.012;8.724;2023-03-04T09:38:03;4.27;;;2.57;;
11222;SDS011;5668;52.012;8.724;2023-03-04T09:40:31;4.77;;;2.90;;
11222;SDS011;5668;52.012;8.724;2023-03-04T09:43:04;6.00;;;2.40;;
11222;SDS011;5668;52.012;8.724;2023-03-04T09:45:38;6.03;;;2.53;;
11222;SDS011;5668;52.012;8.724;2023-03-04T09:48:09;7.60;;;2.83;;
11222;SDS011;5668;52.012;8.724;2023-03-04T09:50:43;6.27;;;2.63;;
11222;SDS011;5668;52.012;8.724;2023-03-04T09:53:26;7.47;;;3.30;;
11222;SDS011;5668;52.012;8.724;2023-03-04T09:56:00;7.37;;;2.47;;
11222;SDS011;5668;52.012;8.724;2023-03-04T09:58:34;4.13;;;3.00;;
11222;SDS011;5668;52.012;8.724;2023-03-04T10:01:10;6.40;;;2.70;;
11222;SDS011;5668;52.012;8.724;2023-03-04T10:03:45;8.70;;;3.10;;
11222;SDS011;5668;52.012;8.724;2023-03-04T10:06:19;5.43;;;2.50;;
11222;SDS011;5668;52.012;8.724;2023-03-04T10:08:50;4.27;;;2.60;;
11222;SDS011;5668;52.012;8.724;2023-03-04T10:11:22;4.60;;;2.40;;
11222;SDS011;5668;52.012;8.724;2023-03-04T10:14:09;4.17;;;2.67;;
11222;SDS011;5668;52.012;8.724;2023-03-04T10:16:56;4.13;;;2.30;;
11222;SDS011;5668;52.012;8.724;2023-03-04T10:19:29;2.77;;;2.43;;
11222;SDS011;5668;52.012;8.724;2023-03-04T10:22:12;5.07;;;2.20;;
11222;SDS011;5668;52.012;8.724;2023-03-04T10:24:46;4.17;;;2.60;;
11222;SDS011;5668;52.012;8.724;2023-03-04T10:27:14;3.53;;;2.27;;
11222;SDS011;5668;52.012;8.724;2023-03-04T10:29:44;4.40;;;2.30;;
11222;SDS011;5668;52.012;8.724;2023-03-04T10:32:12;3.30;;;2.40;;
11222;SDS011;5668;52.012;8.724;2023-03-04T10:34:41;4.70;;;2.50;;
11222;SDS011;5668;52.012;8.724;2023-03-04T10:37:09;3.83;;;2.10;;
11222;SDS011;5668;52.012;8.724;2023-03-04T10:39:37;2.73;;;1.97;;
11222;SDS011;5668;52.012;8.724;2023-03-04T10:42:21;4.87;;;2.33;;
11222;SDS011;5668;52.012;8.724;2023-03-04T10:44:52;2.50;;;1.93;;
11222;SDS011;5668;52.012;8.724;2023-03-04T10:47:22;1.90;;;1.70;;
11222;SDS011;5668;52.012;8.724;2023-03-04T10:49:51;4.67;;;1.80;;
11222;SDS011;5668;52.012;8.724;2023-03-04T10:52:25;2.93;;;2.10;;
11222;SDS011;5668;52.012;8.724;2023-03-04T10:54:55;2.77;;;1.70;;
11222;SDS011;5668;52.012;8.724;2023-03-04T10:57:27;3.60;;;1.90;;
11222;SDS011;5668;52.012;8.724;2023-03-04T10:59:59;3.60;;;1.93;;
11222;SDS011;5668;52.012;8.724;2023-03-04T11:02:27;2.50;;;2.07;;
11222;SDS011;5668;52.012;8.724;2023-03-04T11:05:04;2.97;;;1.80;;
11222;SDS011;5668;52.012;8.724;2023-03-04T11:07:41;2.90;;;1.97;;
11222;SDS011;5668;52.012;8.724;2023-03-04T11:10:13;2.20;;;2.00;;
11222;SDS011;5668;52.012;8.724;2023-03-04T11:12:48;3.90;;;2.57;;
11222;SDS011;5668;52.012;8.724;2023-03-04T11:15:21;2.73;;;2.20;;
11222;SDS011;5668;52.012;8.724;2023-03-04T11:17:52;3.90;;;2.50;;
11222;SDS011;5668;52.012;8.724;2023-03-04T11:20:25;3.43;;;2.33;;
11222;SDS011;5668;52.012;8.724;2023-03-04T11:22:56;2.97;;;2.47;;
11222;SDS011;5668;52.012;8.724;2023-03-04T11:25:28;3.97;;;2.60;;
11222;SDS011;5668;52.012;8.724;2023-03-04T11:28:00;4.70;;;2.93;;
11222;SDS011;5668;52.012;8.724;2023-03-04T11:30:33;5.17;;;2.57;;
11222;SDS011;5668;52.012;8.724;2023-03-04T11:33:12;6.10;;;2.97;;
11222;SDS011;5668;52.012;8.724;2023-03-04T11:35:47;5.57;;;2.37;;
11222;SDS011;5668;52.012;8.724;2023-03-04T11:38:23;4.90;;;2.23;;
11222;SDS011;5668;52.012;8.724;2023-03-04T11:40:57;4.17;;;2.20;;
11222;SDS011;5668;52.012;8.724;2023-03-04T11:43:31;5.33;;;2.30;;
11222;SDS011;5668;52.012;8.724;2023-03-04T11:46:05;6.40;;;2.30;;
11222;SDS011;5668;52.012;8.724;2023-03-04T11:49:05;5.03;;;2.10;;
11222;SDS011;5668;52.012;8.724;2023-03-04T11:51:41;4.10;;;2.30;;
11222;SDS011;5668;52.012;8.724;2023-03-04T11:54:21;6.47;;;2.40;;
11222;SDS011;5668;52.012;8.724;2023-03-04T11:56:58;5.27;;;2.10;;
11222;SDS011;5668;52.012;8.724;2023-03-04T11:59:37;5.30;;;2.10;;
11222;SDS011;5668;52.012;8.724;2023-03-04T12:02:17;6.17;;;2.27;;
11222;SDS011;5668;52.012;8.724;2023-03-04T12:04:54;5.37;;;2.10;;
11222;SDS011;5668;52.012;8.724;2023-03-04T12:07:48;4.67;;;1.83;;
11222;SDS011;5668;52.012;8.724;2023-03-04T12:10:34;4.30;;;1.70;;
11222;SDS011;5668;52.012;8.724;2023-03-04T12:13:20;8.03;;;1.87;;
11222;SDS011;5668;52.012;8.724;2023-03-04T12:16:04;5.67;;;1.87;;
11222;SDS011;5668;52.012;8.724;2023-03-04T12:18:45;5.97;;;2.90;;
11222;SDS011;5668;52.012;8.724;2023-03-04T12:21:27;5.77;;;1.83;;
11222;SDS011;5668;52.012;8.724;2023-03-04T12:24:17;6.57;;;2.00;;
11222;SDS011;5668;52.012;8.724;2023-03-04T12:26:57;6.50;;;1.80;;
11222;SDS011;5668;52.012;8.724;2023-03-04T12:29:31;5.37;;;1.90;;
11222;SDS011;5668;52.012;8.724;2023-03-04T12:32:08;6.33;;;1.70;;
11222;SDS011;5668;52.012;8.724;2023-03-04T12:34:44;7.97;;;2.00;;
11222;SDS011;5668;52.012;8.724;2023-03-04T12:37:30;11.17;;;2.40;;
11222;SDS011;5668;52.012;8.724;2023-03-04T12:40:19;5.73;;;1.60;;
11222;SDS011;5668;52.012;8.724;2023-03-04T12:43:01;6.37;;;1.90;;
11222;SDS011;5668;52.012;8.724;2023-03-04T12:45:53;6.83;;;1.93;;
11222;SDS011;5668;52.012;8.724;2023-03-04T12:48:31;6.00;;;2.07;;
11222;SDS011;5668;52.012;8.724;2023-03-04T12:53:53;5.00;;;1.73;;
11222;SDS011;5668;52.012;8.724;2023-03-04T12:56:32;7.07;;;2.33;;
11222;SDS011;5668;52.012;8.724;2023-03-04T12:59:04;4.70;;;1.63;;
11222;SDS011;5668;52.012;8.724;2023-03-04T13:01:38;4.00;;;1.50;;
11222;SDS011;5668;52.012;8.724;2023-03-04T13:04:13;5.97;;;1.70;;
11222;SDS011;5668;52.012;8.724;2023-03-04T13:06:48;5.90;;;1.50;;
11222;SDS011;5668;52.012;8.724;2023-03-04T13:09:27;6.90;;;1.77;;
11222;SDS011;5668;52.012;8.724;2023-03-04T13:12:01;4.47;;;1.57;;
11222;SDS011;5668;52.012;8.724;2023-03-04T13:14:36;5.77;;;1.80;;
11222;SDS011;5668;52.012;8.724;2023-03-04T13:20:12;4.33;;;1.70;;
11222;SDS011;5668;52.012;8.724;2023-03-04T13:22:46;2.33;;;1.60;;
11222;SDS011;5668;52.012;8.724;2023-03-04T13:25:30;5.73;;;1.53;;
11222;SDS011;5668;52.012;8.724;2023-03-04T13:28:05;5.30;;;2.00;;
11222;SDS011;5668;52.012;8.724;2023-03-04T13:33:44;5.57;;;1.87;;
11222;SDS011;5668;52.012;8.724;2023-03-04T13:39:24;4.73;;;1.33;;
11222;SDS011;5668;52.012;8.724;2023-03-04T13:41:59;4.90;;;1.83;;
11222;SDS011;5668;52.012;8.724;2023-03-04T13:44:35;6.47;;;1.90;;
11222;SDS011;5668;52.012;8.724;2023-03-04T13:47:25;4.13;;;1.50;;
11222;SDS011;5668;52.012;8.724;2023-03-04T13:50:28;6.93;;;1.40;;
11222;SDS011;5668;52.012;8.724;2023-03-04T13:53:26;4.87;;;1.33;;
11222;SDS011;5668;52.012;8.724;2023-03-04T13:56:00;4.63;;;1.70;;
11222;SDS011;5668;52.012;8.724;2023-03-04T13:58:36;6.80;;;1.70;;
11222;SDS011;5668;52.012;8.724;2023-03-04T14:01:05;5.93;;;1.67;;
11222;SDS011;5668;52.012;8.724;2023-03-04T14:03:49;6.03;;;1.90;;
11222;SDS011;5668;52.012;8.724;2023-03-04T14:06:18;7.57;;;1.67;;
11222;SDS011;5668;52.012;8.724;2023-03-04T14:08:48;5.80;;;1.70;;
11222;SDS011;5668;52.012;8.724;2023-03-04T14:11:18;10.07;;;2.23;;
11222;SDS011;5668;52.012;8.724;2023-03-04T14:13:52;8.70;;;2.33;;
11222;SDS011;5668;52.012;8.724;2023-03-04T14:16:22;6.17;;;1.80;;
11222;SDS011;5668;52.012;8.724;2023-03-04T14:18:56;6.33;;;2.07;;
11222;SDS011;5668;52.012;8.724;2023-03-04T14:21:24;5.77;;;1.90;;
11222;SDS011;5668;52.012;8.724;2023-03-04T14:24:01;9.67;;;2.27;;
11222;SDS011;5668;52.012;8.724;2023-03-04T14:26:30;11.50;;;2.40;;
11222;SDS011;5668;52.012;8.724;2023-03-04T14:28:58;5.43;;;2.03;;
11222;SDS011;5668;52.012;8.724;2023-03-04T14:31:27;5.53;;;1.70;;
11222;SDS011;5668;52.012;8.724;2023-03-04T14:33:57;5.47;;;1.83;;
11222;SDS011;5668;52.012;8.724;2023-03-04T14:36:27;9.93;;;2.27;;
11222;SDS011;5668;52.012;8.724;2023-03-04T14:38:58;5.63;;;1.90;;
11222;SDS011;5668;52.012;8.724;2023-03-04T14:41:31;9.40;;;1.90;;
11222;SDS011;5668;52.012;8.724;2023-03-04T14:44:02;9.60;;;2.93;;
11222;SDS011;5668;52.012;8.724;2023-03-04T14:46:35;10.77;;;2.80;;
11222;SDS011;5668;52.012;8.724;2023-03-04T14:49:08;11.57;;;2.10;;
11222;SDS011;5668;52.012;8.724;2023-03-04T14:51:39;8.93;;;1.93;;
11222;SDS011;5668;52.012;8.724;2023-03-04T14:54:27;6.53;;;2.17;;
11222;SDS011;5668;52.012;8.724;2023-03-04T14:56:57;9.50;;;2.20;;
11222;SDS011;5668;52.012;8.724;2023-03-04T14:59:26;7.37;;;2.03;;
11222;SDS011;5668;52.012;8.724;2023-03-04T15:02:07;10.23;;;2.20;;
11222;SDS011;5668;52.012;8.724;2023-03-04T15:04:43;8.73;;;2.23;;
11222;SDS011;5668;52.012;8.724;2023-03-04T15:07:12;5.97;;;1.90;;
11222;SDS011;5668;52.012;8.724;2023-03-04T15:09:49;8.50;;;2.03;;
11222;SDS011;5668;52.012;8.724;2023-03-04T15:12:21;4.80;;;1.70;;
11222;SDS011;5668;52.012;8.724;2023-03-04T15:14:51;4.83;;;1.70;;
11222;SDS011;5668;52.012;8.724;2023-03-04T15:17:28;7.20;;;2.40;;
11222;SDS011;5668;52.012;8.724;2023-03-04T15:20:15;7.80;;;1.77;;
11222;SDS011;5668;52.012;8.724;2023-03-04T15:22:55;5.57;;;1.77;;
11222;SDS011;5668;52.012;8.724;2023-03-04T15:25:25;5.77;;;1.80;;
11222;SDS011;5668;52.012;8.724;2023-03-04T15:27:53;7.30;;;1.70;;
11222;SDS011;5668;52.012;8.724;2023-03-04T15:30:21;9.07;;;2.13;;